HAF212 LGSA-LGSA
Flight info
| Callsign | HAF212 |
|---|---|
| Flight time | N/A |
| Altitude | 3500 |
| Route | BAVES LGIR LGTL BAVES |
| Aircraft | CL41/M-GPS/C |
Departure
| Time | 2026-05-06 10:53 |
|---|---|
| Airport | Chania International Airport (LGSA) |
Arrival
| Time | N/A |
|---|---|
| Airport | Chania International Airport (LGSA) |
| Time | Latitude | Longitude | Altitude | Speed | Heading |
|---|---|---|---|---|---|
| 2026-05-06 10:45 | 35.53687 | 24.14483 | 493 ft | 0 kts | 111° |
| 2026-05-06 10:49 | 35.53679 | 24.14482 | 487 ft | 5 kts | 226° |
| 2026-05-06 10:49 | 35.53643 | 24.14386 | 489 ft | 19 kts | 232° |
| 2026-05-06 10:50 | 35.53528 | 24.14462 | 491 ft | 30 kts | 111° |
| 2026-05-06 10:50 | 35.53438 | 24.14735 | 493 ft | 38 kts | 112° |
| 2026-05-06 10:50 | 35.53333 | 24.15053 | 485 ft | 42 kts | 112° |
| 2026-05-06 10:50 | 35.53217 | 24.15397 | 484 ft | 45 kts | 111° |
| 2026-05-06 10:51 | 35.53114 | 24.15723 | 488 ft | 38 kts | 114° |
| 2026-05-06 10:51 | 35.53010 | 24.15944 | 495 ft | 29 kts | 151° |
| 2026-05-06 10:51 | 35.52885 | 24.15870 | 492 ft | 29 kts | 282° |
| 2026-05-06 10:51 | 35.53015 | 24.15433 | 488 ft | 90 kts | 292° |
| 2026-05-06 10:52 | 35.53276 | 24.14633 | 525 ft | 103 kts | 291° |
| 2026-05-06 10:52 | 35.53556 | 24.13757 | 651 ft | 118 kts | 287° |
| 2026-05-06 10:52 | 35.53399 | 24.12845 | 876 ft | 124 kts | 210° |
| 2026-05-06 10:52 | 35.52607 | 24.13076 | 997 ft | 133 kts | 126° |
| 2026-05-06 10:53 | 35.52083 | 24.13939 | 1316 ft | 126 kts | 126° |
| 2026-05-06 10:53 | 35.51539 | 24.14793 | 1596 ft | 127 kts | 128° |
| 2026-05-06 10:53 | 35.51014 | 24.15666 | 1893 ft | 126 kts | 126° |
| 2026-05-06 10:53 | 35.50501 | 24.16525 | 2209 ft | 125 kts | 126° |
| 2026-05-06 10:54 | 35.49944 | 24.17346 | 2489 ft | 125 kts | 129° |
| 2026-05-06 10:54 | 35.49339 | 24.18091 | 2842 ft | 120 kts | 135° |
| 2026-05-06 10:54 | 35.48833 | 24.18852 | 3198 ft | 121 kts | 124° |
| 2026-05-06 10:54 | 35.48315 | 24.19725 | 3361 ft | 131 kts | 127° |
| 2026-05-06 10:55 | 35.47707 | 24.20606 | 3518 ft | 139 kts | 129° |
| 2026-05-06 10:55 | 35.47073 | 24.21523 | 3632 ft | 146 kts | 129° |
| 2026-05-06 10:55 | 35.46476 | 24.22554 | 3710 ft | 151 kts | 124° |
| 2026-05-06 10:55 | 35.45870 | 24.23626 | 3853 ft | 153 kts | 125° |
| 2026-05-06 10:56 | 35.45303 | 24.24725 | 4032 ft | 154 kts | 115° |
| 2026-05-06 10:56 | 35.45040 | 24.26017 | 4126 ft | 159 kts | 96° |
| 2026-05-06 10:56 | 35.45006 | 24.27387 | 4156 ft | 160 kts | 90° |
| 2026-05-06 10:56 | 35.44976 | 24.28762 | 4163 ft | 163 kts | 93° |
| 2026-05-06 10:57 | 35.44901 | 24.30146 | 4194 ft | 163 kts | 96° |
| 2026-05-06 10:57 | 35.44779 | 24.31535 | 4191 ft | 165 kts | 96° |
| 2026-05-06 10:57 | 35.44632 | 24.32939 | 4166 ft | 167 kts | 99° |
| 2026-05-06 10:57 | 35.44449 | 24.34343 | 4170 ft | 166 kts | 99° |
| 2026-05-06 10:58 | 35.44372 | 24.34922 | 4199 ft | 164 kts | 99° |
| 2026-05-06 10:58 | 35.44330 | 24.35213 | 4200 ft | 164 kts | 98° |
| 2026-05-06 10:59 | 35.44199 | 24.36613 | 4198 ft | 164 kts | 93° |
| 2026-05-06 10:59 | 35.44141 | 24.38007 | 4219 ft | 164 kts | 88° |
| 2026-05-06 10:59 | 35.44123 | 24.39415 | 4198 ft | 166 kts | 90° |
| 2026-05-06 10:59 | 35.44087 | 24.40823 | 4213 ft | 165 kts | 91° |
| 2026-05-06 11:00 | 35.44002 | 24.42231 | 4193 ft | 165 kts | 91° |
| 2026-05-06 11:00 | 35.43901 | 24.43662 | 4025 ft | 174 kts | 94° |
| 2026-05-06 11:00 | 35.43803 | 24.45124 | 3990 ft | 170 kts | 92° |
| 2026-05-06 11:00 | 35.43703 | 24.46548 | 3990 ft | 168 kts | 97° |
| 2026-05-06 11:01 | 35.43549 | 24.47969 | 3967 ft | 167 kts | 97° |
| 2026-05-06 11:01 | 35.43332 | 24.49358 | 3994 ft | 164 kts | 104° |
| 2026-05-06 11:01 | 35.43059 | 24.50711 | 4022 ft | 164 kts | 102° |
| 2026-05-06 11:01 | 35.42783 | 24.52066 | 4019 ft | 165 kts | 104° |
| 2026-05-06 11:02 | 35.42478 | 24.53406 | 4061 ft | 163 kts | 106° |
| 2026-05-06 11:02 | 35.42380 | 24.53778 | 4083 ft | 163 kts | 108° |